Time;durP1;ratioP1;P1;durP2;ratioP2;P2;SDS_P1;SDS_P2;PMS_P1;PMS_P2;Temp;Humidity;BMP_temperature;BMP_pressure;BME280_temperature;BME280_humidity;BME280_pressure;Samples;Min_cycle;Max_cycle;Signal;HPM_P1;HPM_P2
2022/03/09 00:00:14;;;;;;;12.30;5.65;;;;;;;-2.94;61.05;97787.52;1700550;83;21059;-89
2022/03/09 00:02:42;;;;;;;13.85;5.65;;;;;;;-2.87;60.72;97795.01;1705865;83;21549;-92
2022/03/09 00:05:09;;;;;;;9.08;4.92;;;;;;;-2.83;60.45;97786.89;1713840;83;21433;-93
2022/03/09 00:07:36;;;;;;;9.45;5.65;;;;;;;-2.79;60.27;97787.38;1721557;83;21004;-92
2022/03/09 00:10:06;;;;;;;11.30;5.47;;;;;;;-2.80;60.52;97782.64;1726611;81;21023;-95
2022/03/09 00:12:34;;;;;;;9.80;5.05;;;;;;;-2.76;60.25;97780.08;1730597;83;20992;-94
2022/03/09 00:15:01;;;;;;;13.00;5.65;;;;;;;-2.74;60.05;97785.75;1717650;83;20997;-93
2022/03/09 00:17:27;;;;;;;10.98;5.72;;;;;;;-2.76;60.23;97779.67;1705132;83;21027;-96
2022/03/09 00:19:54;;;;;;;11.15;5.65;;;;;;;-2.75;60.06;97784.45;1695191;84;21044;-96
2022/03/09 00:22:21;;;;;;;13.13;6.05;;;;;;;-2.78;60.37;97776.19;1695187;85;21009;-96
2022/03/09 00:24:48;;;;;;;11.33;6.55;;;;;;;-2.79;60.19;97779.60;1695396;83;21035;-96
2022/03/09 00:27:15;;;;;;;11.22;6.15;;;;;;;-2.76;60.14;97772.30;1695606;83;21027;-96
2022/03/09 00:29:41;;;;;;;11.60;6.15;;;;;;;-2.80;60.44;97759.70;1695764;85;21051;-96
2022/03/09 00:32:08;;;;;;;11.65;6.12;;;;;;;-2.79;60.39;97762.74;1695214;83;21076;-95
2022/03/09 00:34:36;;;;;;;13.08;6.50;;;;;;;-2.80;60.16;97759.29;1695191;83;21493;-96
2022/03/09 00:37:03;;;;;;;11.48;6.20;;;;;;;-2.83;60.16;97764.41;1697764;84;21019;-96
2022/03/09 00:39:31;;;;;;;11.60;5.50;;;;;;;-2.84;60.38;97765.66;1699882;83;21024;-96
2022/03/09 00:42:00;;;;;;;14.58;6.28;;;;;;;-2.84;60.20;97761.78;1700082;84;21059;-96
2022/03/09 00:44:27;;;;;;;13.45;6.22;;;;;;;-2.82;60.36;97767.45;1699917;84;21544;-95
2022/03/09 00:46:55;;;;;;;10.88;5.67;;;;;;;-2.84;60.24;97767.85;1699901;84;21000;-96
2022/03/09 00:49:22;;;;;;;9.45;5.87;;;;;;;-2.84;60.32;97768.27;1699776;84;21020;-96
2022/03/09 00:51:48;;;;;;;10.28;6.10;;;;;;;-2.84;60.27;97766.55;1699806;84;21067;-95
2022/03/09 00:54:15;;;;;;;11.40;5.72;;;;;;;-2.84;60.61;97770.45;1699566;84;21035;-96
2022/03/09 00:56:42;;;;;;;11.48;5.97;;;;;;;-2.83;60.31;97773.48;1699345;84;21099;-96
2022/03/09 00:59:08;;;;;;;10.60;5.83;;;;;;;-2.82;60.63;97775.23;1699668;84;21031;-96
2022/03/09 01:01:35;;;;;;;11.57;5.35;;;;;;;-2.82;60.58;97767.45;1665657;85;21020;-96
2022/03/09 01:04:02;;;;;;;10.35;5.37;;;;;;;-2.75;60.27;97767.59;1699401;83;21071;-95
2022/03/09 01:06:29;;;;;;;11.83;5.65;;;;;;;-2.71;60.34;97768.08;1699388;84;21024;-96
2022/03/09 01:08:57;;;;;;;15.23;5.67;;;;;;;-2.68;60.20;97763.84;1699610;84;21438;-93
2022/03/09 01:11:24;;;;;;;13.70;6.37;;;;;;;-2.59;60.20;97764.84;1698410;84;21445;-93
2022/03/09 01:13:51;;;;;;;9.23;5.95;;;;;;;-2.58;60.05;97762.73;1698997;84;21088;-93
2022/03/09 01:16:17;;;;;;;12.85;6.50;;;;;;;-2.56;60.09;97766.22;1698696;83;21079;-93
2022/03/09 01:18:44;;;;;;;10.32;5.90;;;;;;;-2.51;60.15;97769.77;1699110;84;21060;-93
2022/03/09 01:21:10;;;;;;;11.80;5.97;;;;;;;-2.45;60.07;97765.98;1698962;84;21000;-93
2022/03/09 01:23:37;;;;;;;9.60;5.62;;;;;;;-2.45;59.79;97769.02;1699070;84;21083;-92
2022/03/09 01:26:03;;;;;;;10.63;5.58;;;;;;;-2.44;59.77;97761.68;1699178;84;21056;-93
2022/03/09 01:28:30;;;;;;;11.65;5.83;;;;;;;-2.43;59.76;97766.91;1699180;84;21442;-92
2022/03/09 01:30:57;;;;;;;9.90;6.08;;;;;;;-2.41;59.67;97763.05;1701219;84;21027;-92
2022/03/09 01:33:30;;;;;;;9.95;5.62;;;;;;;-2.39;59.66;97763.53;1701687;83;21084;-90
2022/03/09 01:35:56;;;;;;;12.15;5.78;;;;;;;-2.36;59.83;97769.61;1699350;83;21024;-91
2022/03/09 01:38:22;;;;;;;12.28;5.83;;;;;;;-2.32;59.73;97765.78;1700514;84;21031;-93
2022/03/09 01:40:51;;;;;;;9.40;4.53;;;;;;;-2.29;59.76;97764.96;1669145;84;21016;-93
2022/03/09 01:43:19;;;;;;;10.60;5.60;;;;;;;-2.26;59.54;97767.21;1686155;85;21069;-93
2022/03/09 01:45:46;;;;;;;10.32;5.60;;;;;;;-2.20;59.59;97760.37;1686684;85;21449;-90
2022/03/09 01:48:13;;;;;;;10.60;5.53;;;;;;;-2.15;59.51;97765.23;1686369;85;21104;-92
2022/03/09 01:50:40;;;;;;;14.07;5.75;;;;;;;-2.09;59.25;97764.44;1686636;85;21033;-92
2022/03/09 01:53:07;;;;;;;10.60;5.75;;;;;;;-2.06;59.22;97763.20;1686669;85;21446;-92
2022/03/09 01:55:34;;;;;;;9.45;5.37;;;;;;;-2.04;59.20;97761.52;1686244;85;21009;-91
2022/03/09 01:58:00;;;;;;;9.90;5.28;;;;;;;-1.98;59.08;97765.52;1686407;85;21057;-92
2022/03/09 02:00:27;;;;;;;8.98;4.95;;;;;;;-1.96;59.06;97761.20;1686654;85;21033;-92
2022/03/09 02:02:54;;;;;;;12.33;5.83;;;;;;;-1.92;59.02;97764.31;1686466;85;21020;-91
2022/03/09 02:05:21;;;;;;;10.82;5.72;;;;;;;-1.89;58.66;97753.98;1686577;85;21056;-92
2022/03/09 02:10:33;;;;;;;8.93;5.00;;;;;;;-1.99;58.39;97759.43;1686540;85;21016;-92
2022/03/09 02:12:59;;;;;;;9.38;5.30;;;;;;;-1.97;58.59;97762.47;1668571;85;21470;-92
2022/03/09 02:15:26;;;;;;;8.98;5.22;;;;;;;-1.95;58.66;97760.80;1686371;85;21025;-92
2022/03/09 02:17:52;;;;;;;12.65;5.78;;;;;;;-1.90;58.72;97763.04;1686371;85;21005;-91
2022/03/09 02:20:19;;;;;;;7.35;4.87;;;;;;;-1.88;58.58;97759.62;1686451;85;21005;-92
2022/03/09 02:22:46;;;;;;;10.55;4.80;;;;;;;-1.87;58.48;97760.50;1686664;85;21543;-93
2022/03/09 02:25:16;;;;;;;11.78;5.80;;;;;;;-1.84;58.46;97764.88;1686541;85;20969;-91
2022/03/09 02:27:44;;;;;;;10.25;5.35;;;;;;;-1.87;58.38;97758.77;1686644;85;21048;-92
2022/03/09 02:30:15;;;;;;;8.63;5.28;;;;;;;-1.86;58.30;97764.40;1686546;85;21624;-90
2022/03/09 02:32:47;;;;;;;8.78;4.85;;;;;;;-1.86;58.29;97768.30;1686541;85;21032;-91
2022/03/09 02:35:17;;;;;;;10.85;5.62;;;;;;;-1.86;58.21;97770.89;1686374;85;21001;-90
2022/03/09 02:37:44;;;;;;;9.68;5.40;;;;;;;-1.87;57.96;97774.34;1707104;83;21354;-91
2022/03/09 02:40:14;;;;;;;8.68;4.83;;;;;;;-1.88;57.79;97777.80;1718663;83;21040;-90
2022/03/09 02:42:41;;;;;;;11.08;4.80;;;;;;;-1.90;57.89;97774.32;1718872;83;21083;-90
2022/03/09 02:45:09;;;;;;;8.55;4.78;;;;;;;-1.91;57.76;97769.95;1718767;83;21569;-91
2022/03/09 02:47:43;;;;;;;8.55;4.92;;;;;;;-1.94;57.79;97777.70;1719345;83;20996;-91
2022/03/09 02:50:17;;;;;;;12.03;5.20;;;;;;;-2.10;57.33;97776.98;1710590;83;21087;-90
2022/03/09 02:52:47;;;;;;;11.03;5.00;;;;;;;-2.14;57.63;97774.76;1689610;84;21017;-91
2022/03/09 02:55:14;;;;;;;9.63;5.47;;;;;;;-2.19;57.58;97775.98;1689208;84;21478;-91
2022/03/09 02:57:42;;;;;;;9.85;5.12;;;;;;;-2.29;57.61;97784.02;1689043;84;21021;-91
2022/03/09 03:00:11;;;;;;;8.33;4.58;;;;;;;-2.35;57.66;97786.52;1689246;85;21017;-88
2022/03/09 03:02:39;;;;;;;9.60;5.25;;;;;;;-2.44;57.81;97793.71;1689356;84;21021;-90
2022/03/09 03:05:08;;;;;;;6.22;4.15;;;;;;;-2.49;58.03;97789.27;1689283;85;21016;-90
2022/03/09 03:07:36;;;;;;;9.08;5.30;;;;;;;-2.54;58.06;97784.86;1689244;84;21057;-91
2022/03/09 03:10:05;;;;;;;8.43;5.10;;;;;;;-2.57;58.26;97786.53;1689264;84;21092;-90
2022/03/09 03:12:32;;;;;;;8.10;4.67;;;;;;;-2.62;58.39;97786.86;1689311;84;21021;-91
2022/03/09 03:15:00;;;;;;;9.73;4.95;;;;;;;-2.69;58.38;97785.42;1689321;85;21478;-90
2022/03/09 03:17:27;;;;;;;8.05;4.70;;;;;;;-2.69;58.36;97785.86;1688538;84;21041;-90
2022/03/09 03:19:54;;;;;;;6.83;4.60;;;;;;;-2.66;58.29;97791.13;1689140;84;21009;-91
2022/03/09 03:22:20;;;;;;;8.88;4.20;;;;;;;-2.65;58.12;97792.87;1689242;84;21010;-90
2022/03/09 03:24:47;;;;;;;8.20;4.60;;;;;;;-2.79;58.62;97799.05;1689646;84;21475;-89
2022/03/09 03:27:15;;;;;;;7.37;4.83;;;;;;;-2.83;58.88;97792.08;1689190;84;21010;-90
2022/03/09 03:29:41;;;;;;;11.35;5.53;;;;;;;-2.87;59.00;97783.78;1689465;84;21064;-92
2022/03/09 03:32:10;;;;;;;8.40;4.72;;;;;;;-2.89;58.67;97768.59;1689216;85;21056;-90
2022/03/09 03:34:37;;;;;;;8.03;4.92;;;;;;;-2.85;59.01;97784.67;1654013;86;21035;-90
2022/03/09 03:37:05;;;;;;;6.58;4.12;;;;;;;-2.87;59.05;97777.30;1632333;88;21005;-90
2022/03/09 03:39:32;;;;;;;9.78;5.05;;;;;;;-2.82;58.81;97786.90;1636385;87;21096;-90
2022/03/09 03:41:58;;;;;;;6.72;4.08;;;;;;;-2.77;58.81;97781.83;1636758;87;21165;-92
2022/03/09 03:44:25;;;;;;;7.25;4.83;;;;;;;-2.75;58.64;97776.23;1653925;87;21037;-91
2022/03/09 03:46:52;;;;;;;7.87;4.42;;;;;;;-2.72;58.72;97779.30;1654094;87;20988;-91
2022/03/09 03:49:19;;;;;;;7.03;4.58;;;;;;;-2.72;58.50;97782.78;1653580;87;21083;-90
2022/03/09 03:51:45;;;;;;;8.23;4.30;;;;;;;-2.68;58.42;97782.42;1667809;86;21070;-92
2022/03/09 03:54:12;;;;;;;10.45;5.08;;;;;;;-2.65;58.46;97783.34;1704087;84;21500;-92
2022/03/09 03:56:39;;;;;;;9.45;4.47;;;;;;;-2.70;58.43;97781.52;1703902;84;21042;-93
2022/03/09 03:59:05;;;;;;;10.15;4.87;;;;;;;-2.68;58.54;97782.42;1703930;84;21406;-93
2022/03/09 04:01:32;;;;;;;8.23;4.70;;;;;;;-2.67;58.49;97785.45;1704125;84;20952;-96
2022/03/09 04:04:01;;;;;;;7.60;4.62;;;;;;;-2.69;58.44;97780.23;1704310;84;20993;-94
2022/03/09 04:06:29;;;;;;;10.80;5.20;;;;;;;-2.66;58.41;97787.23;1704301;84;20992;-93
2022/03/09 04:08:55;;;;;;;8.65;5.05;;;;;;;-2.67;58.30;97791.94;1704122;84;21043;-94
2022/03/09 04:11:22;;;;;;;10.30;4.97;;;;;;;-2.69;58.33;97784.13;1704188;84;21115;-92
2022/03/09 04:13:49;;;;;;;10.32;4.97;;;;;;;-2.65;58.35;97777.30;1704038;84;21051;-93
2022/03/09 04:16:17;;;;;;;9.98;4.83;;;;;;;-2.61;58.35;97781.71;1703815;84;21110;-93
2022/03/09 04:18:44;;;;;;;10.90;4.95;;;;;;;-2.61;58.33;97788.61;1703825;84;21052;-93
2022/03/09 04:21:11;;;;;;;8.25;4.50;;;;;;;-2.63;58.31;97787.72;1704171;84;21037;-93
2022/03/09 04:23:39;;;;;;;10.15;4.55;;;;;;;-2.62;58.26;97789.46;1704128;84;21011;-93
2022/03/09 04:26:06;;;;;;;10.13;5.10;;;;;;;-2.61;58.27;97792.09;1704675;84;21012;-93
2022/03/09 04:28:33;;;;;;;8.25;4.70;;;;;;;-2.58;58.29;97793.42;1704790;84;20984;-93
2022/03/09 04:31:00;;;;;;;9.43;4.53;;;;;;;-2.57;58.27;97786.53;1704136;84;20984;-93
2022/03/09 04:33:27;;;;;;;9.60;4.60;;;;;;;-2.62;58.27;97785.13;1704661;84;21000;-93
2022/03/09 04:35:54;;;;;;;9.05;4.72;;;;;;;-2.61;58.25;97792.50;1704842;84;21083;-94
2022/03/09 04:38:20;;;;;;;8.93;5.08;;;;;;;-2.66;58.24;97793.72;1701938;84;20965;-94
2022/03/09 04:40:48;;;;;;;11.57;4.72;;;;;;;-2.69;58.38;97794.50;1704729;84;20977;-94
2022/03/09 04:43:14;;;;;;;11.20;5.10;;;;;;;-2.73;58.47;97795.31;1704377;84;21003;-95
2022/03/09 04:45:41;;;;;;;9.58;5.05;;;;;;;-2.75;58.65;97795.69;1704084;83;21075;-93
2022/03/09 04:48:07;;;;;;;6.95;4.53;;;;;;;-2.71;58.51;97806.98;1686251;84;21000;-94
2022/03/09 04:50:34;;;;;;;8.63;5.08;;;;;;;-2.80;58.70;97807.28;1707719;83;21064;-93
2022/03/09 04:53:01;;;;;;;8.08;4.55;;;;;;;-2.81;58.76;97786.48;1719053;83;20997;-94
2022/03/09 04:55:28;;;;;;;10.63;4.80;;;;;;;-2.82;58.86;97795.98;1719207;83;20977;-94
2022/03/09 04:57:55;;;;;;;8.35;5.03;;;;;;;-2.80;58.69;97798.61;1718918;82;21008;-93
2022/03/09 05:00:25;;;;;;;10.40;5.12;;;;;;;-2.72;58.83;97808.73;1718970;83;21438;-94
2022/03/09 05:02:51;;;;;;;8.78;4.78;;;;;;;-2.71;58.69;97812.17;1719201;83;20984;-94
2022/03/09 05:05:18;;;;;;;8.50;5.05;;;;;;;-2.69;58.74;97820.89;1719631;83;21139;-94
2022/03/09 05:07:45;;;;;;;9.48;5.00;;;;;;;-2.67;58.62;97810.99;1721966;83;20984;-93
2022/03/09 05:10:12;;;;;;;8.33;4.83;;;;;;;-2.68;58.45;97807.06;1719581;83;21056;-92
2022/03/09 05:12:39;;;;;;;7.78;4.87;;;;;;;-2.70;58.84;97807.02;1719297;83;21020;-93
2022/03/09 05:15:06;;;;;;;8.60;5.10;;;;;;;-2.72;59.05;97797.05;1719065;83;21032;-92
2022/03/09 05:17:33;;;;;;;9.55;4.95;;;;;;;-2.72;59.09;97809.14;1718967;83;21032;-94
2022/03/09 05:20:00;;;;;;;8.65;4.97;;;;;;;-2.69;59.10;97815.25;1700437;83;21449;-93
2022/03/09 05:22:27;;;;;;;10.63;5.17;;;;;;;-2.68;58.85;97805.36;1718864;82;21032;-93
2022/03/09 05:24:54;;;;;;;11.97;4.90;;;;;;;-2.63;58.85;97811.92;1699584;83;20977;-93
2022/03/09 05:27:20;;;;;;;8.70;5.72;;;;;;;-2.60;58.75;97802.91;1718999;83;21016;-92
2022/03/09 05:29:47;;;;;;;8.20;5.12;;;;;;;-2.58;58.68;97815.48;1718813;82;21029;-92
2022/03/09 05:32:14;;;;;;;10.58;5.50;;;;;;;-2.52;58.51;97818.63;1719660;83;21016;-91
2022/03/09 05:34:41;;;;;;;10.25;5.30;;;;;;;-2.52;58.80;97815.59;1719763;83;20993;-90
2022/03/09 05:37:08;;;;;;;12.10;6.17;;;;;;;-2.49;58.58;97813.92;1718602;82;21008;-90
2022/03/09 05:39:34;;;;;;;9.88;5.20;;;;;;;-2.49;58.54;97816.08;1719097;82;21048;-90
2022/03/09 05:42:01;;;;;;;10.68;5.00;;;;;;;-2.53;58.61;97816.89;1716290;83;21303;-92
2022/03/09 05:44:29;;;;;;;11.38;5.83;;;;;;;-2.49;58.58;97816.52;1679909;84;21473;-90
2022/03/09 05:47:00;;;;;;;10.90;5.58;;;;;;;-2.44;58.52;97827.86;1705615;83;21007;-92
2022/03/09 05:49:27;;;;;;;9.15;5.05;;;;;;;-2.46;58.03;97823.08;1692046;83;21024;-91
2022/03/09 05:51:54;;;;;;;10.48;5.78;;;;;;;-2.48;58.24;97826.94;1721234;82;21426;-92
2022/03/09 05:54:21;;;;;;;8.90;4.78;;;;;;;-2.48;58.09;97816.96;1721259;83;21004;-92
2022/03/09 05:56:47;;;;;;;10.88;5.47;;;;;;;-2.53;58.30;97820.34;1715950;83;21407;-92
2022/03/09 05:59:14;;;;;;;8.83;4.85;;;;;;;-2.40;58.08;97827.94;1711784;84;21056;-92
2022/03/09 06:01:41;;;;;;;8.83;4.90;;;;;;;-2.36;57.88;97834.09;1711861;84;22150;-93
2022/03/09 06:04:08;;;;;;;12.25;4.97;;;;;;;-2.36;57.83;97835.38;1711898;84;21013;-92
2022/03/09 06:06:35;;;;;;;9.58;5.17;;;;;;;-2.35;57.94;97826.74;1684093;84;20985;-94
2022/03/09 06:09:01;;;;;;;7.35;4.05;;;;;;;-2.32;57.83;97826.78;1699104;84;21402;-95
2022/03/09 06:11:28;;;;;;;9.95;5.47;;;;;;;-2.40;57.51;97823.19;1699384;84;21419;-94
2022/03/09 06:13:54;;;;;;;8.65;4.83;;;;;;;-2.31;57.65;97838.05;1699334;84;21014;-95
2022/03/09 06:16:21;;;;;;;8.18;4.80;;;;;;;-2.30;57.40;97839.39;1706634;83;20960;-95
2022/03/09 06:18:49;;;;;;;9.68;5.28;;;;;;;-2.20;57.41;97840.42;1721862;83;20969;-93
2022/03/09 06:21:16;;;;;;;8.13;4.87;;;;;;;-2.23;57.04;97839.09;1692076;83;21004;-92
2022/03/09 06:23:43;;;;;;;8.40;5.28;;;;;;;-2.17;57.12;97843.50;1693921;84;20993;-94
2022/03/09 06:26:09;;;;;;;8.63;4.80;;;;;;;-2.13;56.98;97839.70;1704949;83;21008;-90
2022/03/09 06:28:36;;;;;;;11.05;6.37;;;;;;;-2.10;57.10;97834.99;1712033;84;21608;-91
2022/03/09 06:31:03;;;;;;;14.60;5.65;;;;;;;-2.05;56.81;97835.06;1712024;84;21004;-93
2022/03/09 06:33:30;;;;;;;8.83;4.50;;;;;;;-2.05;56.91;97844.15;1712264;84;20995;-93
2022/03/09 06:35:57;;;;;;;51.10;25.35;;;;;;;-2.01;57.06;97846.84;1711955;84;21141;-93
2022/03/09 06:38:23;;;;;;;9.78;5.10;;;;;;;-1.93;57.10;97846.09;1712030;83;21024;-94
2022/03/09 06:40:50;;;;;;;10.30;5.30;;;;;;;-1.92;56.58;97850.44;1711422;84;21060;-93
2022/03/09 06:43:16;;;;;;;8.33;4.85;;;;;;;-1.89;56.51;97844.02;1715365;82;21020;-93
2022/03/09 06:45:43;;;;;;;12.58;5.45;;;;;;;-1.89;56.16;97852.69;1718927;83;21476;-93
2022/03/09 06:48:10;;;;;;;9.28;5.10;;;;;;;-1.90;56.42;97850.06;1718887;82;20996;-93
2022/03/09 06:50:37;;;;;;;10.10;5.25;;;;;;;-1.83;56.64;97858.84;1717781;82;21079;-94
2022/03/09 06:53:05;;;;;;;10.38;5.17;;;;;;;-1.75;56.54;97854.63;1689282;84;21419;-93
2022/03/09 06:55:32;;;;;;;10.85;5.83;;;;;;;-1.67;56.14;97861.29;1689563;84;21028;-93
2022/03/09 06:57:59;;;;;;;10.05;5.55;;;;;;;-1.56;56.13;97857.14;1689325;85;21096;-94
2022/03/09 07:00:25;;;;;;;11.80;5.42;;;;;;;-1.48;56.22;97852.95;1689402;85;21044;-94
2022/03/09 07:02:53;;;;;;;8.93;5.10;;;;;;;-1.38;56.33;97863.05;1689466;84;21009;-93
2022/03/09 07:05:20;;;;;;;10.50;5.28;;;;;;;-1.23;56.13;97856.34;1689285;85;21013;-93
2022/03/09 07:07:47;;;;;;;9.23;5.33;;;;;;;-1.10;55.96;97858.70;1689459;84;21117;-93
2022/03/09 07:10:13;;;;;;;10.38;5.03;;;;;;;-0.97;55.53;97863.23;1688946;85;21032;-92
2022/03/09 07:12:45;;;;;;;8.68;4.62;;;;;;;-0.83;55.03;97863.87;1690123;84;21000;-96
2022/03/09 07:15:14;;;;;;;7.35;4.45;;;;;;;-0.76;53.98;97859.18;1690246;84;21099;-96
2022/03/09 07:17:42;;;;;;;8.08;4.20;;;;;;;-0.70;52.46;97855.80;1689895;85;21064;-96
2022/03/09 07:20:11;;;;;;;7.58;3.83;;;;;;;-0.69;52.76;97858.42;1689901;85;21056;-93
2022/03/09 07:22:41;;;;;;;7.15;4.05;;;;;;;-0.71;49.51;97859.26;1689214;85;21529;-94
2022/03/09 07:25:10;;;;;;;7.08;4.15;;;;;;;-0.65;51.07;97861.05;1689383;85;20997;-93
2022/03/09 07:27:37;;;;;;;7.10;3.55;;;;;;;-0.61;52.45;97841.60;1689495;85;20984;-92
2022/03/09 07:30:08;;;;;;;5.45;3.00;;;;;;;-0.56;51.93;97853.36;1689271;84;21038;-95
2022/03/09 07:32:36;;;;;;;5.15;2.83;;;;;;;-0.51;46.94;97857.34;1673070;84;20976;-92
2022/03/09 07:35:05;;;;;;;5.50;2.67;;;;;;;-0.52;46.29;97856.45;1676020;86;20996;-93
2022/03/09 07:37:32;;;;;;;4.53;2.85;;;;;;;-0.53;47.37;97848.20;1682163;84;21082;-94
2022/03/09 07:40:01;;;;;;;4.53;2.45;;;;;;;-0.50;45.71;97849.97;1695250;84;20986;-93
2022/03/09 07:42:28;;;;;;;4.50;2.52;;;;;;;-0.44;46.58;97847.02;1690870;84;20984;-89
2022/03/09 07:44:54;;;;;;;5.10;2.47;;;;;;;-0.40;45.36;97855.28;1693198;84;21393;-91
2022/03/09 07:47:21;;;;;;;4.85;2.60;;;;;;;-0.34;46.28;97856.24;1700285;84;21036;-91
2022/03/09 07:49:48;;;;;;;6.00;3.40;;;;;;;-0.41;44.81;97850.08;1686901;84;21052;-92
2022/03/09 07:52:15;;;;;;;5.45;3.40;;;;;;;-0.36;46.87;97850.13;1706087;83;21052;-92
2022/03/09 07:54:41;;;;;;;12.15;5.20;;;;;;;-0.37;47.16;97850.98;1711960;83;21540;-91
2022/03/09 07:57:08;;;;;;;5.33;3.05;;;;;;;-0.31;47.72;97849.75;1708091;83;21036;-91
2022/03/09 07:59:35;;;;;;;5.22;3.17;;;;;;;-0.33;45.74;97847.56;1703251;84;21002;-94
2022/03/09 08:02:03;;;;;;;3.90;2.65;;;;;;;-0.27;47.55;97843.31;1707112;84;21041;-94
2022/03/09 08:04:30;;;;;;;4.50;2.60;;;;;;;-0.27;44.86;97835.91;1707338;84;21057;-93
2022/03/09 08:06:58;;;;;;;5.05;2.50;;;;;;;-0.26;45.72;97841.55;1707289;84;21088;-93
2022/03/09 08:09:26;;;;;;;6.45;2.80;;;;;;;-0.23;45.77;97839.00;1707267;84;20978;-93
2022/03/09 08:11:54;;;;;;;3.62;2.17;;;;;;;-0.14;46.55;97844.31;1707836;83;20931;-94
2022/03/09 08:14:24;;;;;;;4.70;2.47;;;;;;;-0.08;44.17;97850.45;1716874;83;21040;-93
2022/03/09 08:16:50;;;;;;;5.35;2.60;;;;;;;-0.02;45.16;97855.71;1713758;83;21004;-93
2022/03/09 08:19:17;;;;;;;4.12;2.55;;;;;;;0.05;44.19;97861.86;1707650;83;21485;-94
2022/03/09 08:21:44;;;;;;;3.90;2.62;;;;;;;0.08;43.46;97847.12;1707363;83;20964;-91
2022/03/09 08:24:10;;;;;;;4.35;2.70;;;;;;;0.05;43.00;97851.44;1726218;83;21434;-92
2022/03/09 08:26:37;;;;;;;7.45;2.77;;;;;;;0.15;44.11;97839.36;1726701;83;21008;-92
2022/03/09 08:29:04;;;;;;;5.35;2.45;;;;;;;0.20;44.48;97846.38;1726544;83;21001;-82
2022/03/09 08:31:31;;;;;;;4.22;2.50;;;;;;;0.21;43.99;97838.14;1718350;83;21009;-84
2022/03/09 08:34:00;;;;;;;7.35;3.02;;;;;;;0.21;43.97;97842.05;1702880;84;21067;-84
2022/03/09 08:36:27;;;;;;;3.35;2.40;;;;;;;0.19;43.91;97846.35;1706724;84;21461;-84
2022/03/09 08:38:55;;;;;;;4.67;2.35;;;;;;;0.17;44.09;97844.17;1706814;84;21087;-84
2022/03/09 08:41:26;;;;;;;4.65;2.50;;;;;;;0.12;43.77;97837.18;1706827;84;21051;-82
2022/03/09 08:43:55;;;;;;;6.53;2.83;;;;;;;0.08;43.24;97843.67;1706424;83;21430;-83
2022/03/09 08:46:21;;;;;;;4.00;2.40;;;;;;;0.06;42.87;97841.04;1711405;83;21599;-83
2022/03/09 08:48:50;;;;;;;3.92;2.77;;;;;;;0.07;42.62;97844.50;1713559;83;21034;-84
2022/03/09 08:51:20;;;;;;;4.85;2.75;;;;;;;0.01;42.45;97855.75;1710831;83;21007;-85
2022/03/09 08:53:45;;;;;;;4.62;2.83;;;;;;;0.05;42.54;97839.30;1684571;84;21028;-84
2022/03/09 08:56:12;;;;;;;3.98;2.35;;;;;;;-0.03;42.44;97843.10;1675559;85;21506;-84
2022/03/09 08:58:39;;;;;;;4.53;2.67;;;;;;;0.01;42.41;97839.23;1675432;85;21048;-84
2022/03/09 09:01:07;;;;;;;5.75;2.52;;;;;;;0.09;43.21;97834.53;1675347;86;21001;-82
2022/03/09 09:03:33;;;;;;;5.78;2.45;;;;;;;0.20;42.85;97833.79;1688649;85;21061;-83
2022/03/09 09:06:02;;;;;;;6.50;2.80;;;;;;;0.37;43.66;97840.02;1689268;85;21474;-83
2022/03/09 09:08:30;;;;;;;3.55;2.10;;;;;;;0.53;43.41;97833.62;1663176;85;21972;-85
2022/03/09 09:10:56;;;;;;;8.48;2.60;;;;;;;0.72;43.70;97835.95;1665579;85;21084;-85
2022/03/09 09:13:23;;;;;;;3.92;2.33;;;;;;;0.92;44.11;97820.87;1687985;85;21410;-85
2022/03/09 09:15:50;;;;;;;3.83;2.50;;;;;;;1.15;40.57;97825.33;1688828;85;21056;-85
2022/03/09 09:18:16;;;;;;;4.35;2.40;;;;;;;1.41;42.90;97825.45;1689021;85;21103;-85
2022/03/09 09:20:45;;;;;;;4.42;2.22;;;;;;;1.64;41.26;97810.73;1689256;84;21019;-85
2022/03/09 09:23:12;;;;;;;4.70;2.25;;;;;;;1.87;40.60;97817.78;1689039;85;21090;-85
2022/03/09 09:25:38;;;;;;;5.25;2.52;;;;;;;1.90;39.21;97812.13;1688865;85;21497;-85
2022/03/09 09:28:06;;;;;;;4.85;2.67;;;;;;;1.91;40.15;97820.84;1689188;84;21406;-85
2022/03/09 09:30:33;;;;;;;5.25;2.85;;;;;;;2.01;41.28;97823.03;1689241;84;21067;-86
2022/03/09 09:33:01;;;;;;;7.08;2.80;;;;;;;2.13;40.09;97835.25;1689385;84;21059;-86
2022/03/09 09:35:30;;;;;;;4.08;2.80;;;;;;;2.13;40.00;97836.56;1689460;85;20979;-86
2022/03/09 09:38:06;;;;;;;4.72;2.85;;;;;;;1.84;38.69;97835.19;1689323;84;21134;-86
2022/03/09 09:40:27;;;;;;;3.60;2.58;;;;;;;1.79;40.26;97829.07;1688104;85;21004;-85
2022/03/09 09:42:55;;;;;;;4.05;2.50;;;;;;;1.82;40.94;97831.70;1688951;85;20993;-85
2022/03/09 09:45:22;;;;;;;4.50;3.08;;;;;;;1.90;39.13;97839.98;1689366;85;21008;-85
2022/03/09 09:47:48;;;;;;;4.83;2.75;;;;;;;1.84;39.83;97844.78;1689322;84;21024;-85
2022/03/09 09:50:17;;;;;;;5.62;2.85;;;;;;;1.90;40.11;97845.21;1689188;84;21037;-84
2022/03/09 09:52:44;;;;;;;5.95;2.50;;;;;;;2.00;40.55;97848.73;1689118;83;21040;-84
2022/03/09 09:55:12;;;;;;;6.22;3.00;;;;;;;1.88;39.25;97847.84;1689256;84;21017;-83
2022/03/09 09:57:40;;;;;;;4.47;2.58;;;;;;;2.01;40.16;97846.13;1689300;84;21025;-86
2022/03/09 10:00:09;;;;;;;4.53;2.67;;;;;;;2.19;39.15;97850.94;1689267;84;21064;-85
2022/03/09 10:02:42;;;;;;;4.92;2.50;;;;;;;2.26;38.45;97850.09;1689106;84;21052;-85
2022/03/09 10:05:15;;;;;;;5.62;2.65;;;;;;;2.37;39.72;97849.67;1689267;85;21438;-85
2022/03/09 10:08:07;;;;;;;3.57;2.50;;;;;;;2.53;38.70;97847.05;1689473;85;21063;-84
2022/03/09 10:10:41;;;;;;;3.72;2.47;;;;;;;2.42;38.13;97851.00;1689207;84;21040;-84
2022/03/09 10:13:19;;;;;;;6.85;2.50;;;;;;;2.53;39.21;97844.44;1689392;84;21482;-83
2022/03/09 10:15:51;;;;;;;3.75;2.47;;;;;;;2.44;37.09;97844.43;1684310;83;21041;-84
2022/03/09 10:18:21;;;;;;;4.08;2.33;;;;;;;2.52;35.91;97837.92;1685853;85;21450;-84
2022/03/09 10:20:50;;;;;;;10.18;2.92;;;;;;;2.63;37.57;97845.33;1681395;85;21379;-84
2022/03/09 10:23:21;;;;;;;4.17;2.80;;;;;;;2.81;38.09;97844.44;1673944;86;21502;-84
2022/03/09 10:25:48;;;;;;;4.65;3.22;;;;;;;2.80;38.17;97840.52;1674018;86;21415;-85
2022/03/09 10:28:15;;;;;;;4.80;3.25;;;;;;;2.90;37.67;97854.02;1673971;86;21018;-85
2022/03/09 10:30:43;;;;;;;7.70;3.05;;;;;;;2.81;37.74;97846.17;1673944;86;21057;-84
2022/03/09 10:33:13;;;;;;;8.25;2.83;;;;;;;2.83;38.43;97838.75;1674863;86;21037;-83
2022/03/09 10:35:49;;;;;;;4.40;3.10;;;;;;;2.88;38.97;97844.00;1675381;86;21065;-82
2022/03/09 10:38:23;;;;;;;4.33;2.60;;;;;;;2.88;37.93;97830.91;1675493;86;21033;-82
2022/03/09 10:40:58;;;;;;;4.15;2.67;;;;;;;2.74;37.41;97834.41;1675333;85;21068;-83
2022/03/09 10:43:28;;;;;;;3.42;2.15;;;;;;;2.80;37.12;97836.59;1675369;85;21044;-83
2022/03/09 10:46:13;;;;;;;4.08;2.55;;;;;;;2.66;35.93;97835.30;1675324;85;21572;-83
2022/03/09 10:49:02;;;;;;;3.92;2.70;;;;;;;2.62;36.09;97826.58;1675568;85;21124;-85
2022/03/09 10:51:39;;;;;;;4.25;2.52;;;;;;;2.64;35.24;97832.67;1675587;86;21010;-83
2022/03/09 10:54:16;;;;;;;4.08;2.42;;;;;;;2.74;36.55;97831.80;1677573;84;21040;-84
2022/03/09 10:56:41;;;;;;;5.78;3.12;;;;;;;2.61;35.18;97827.43;1703904;84;21398;-83
2022/03/09 10:59:16;;;;;;;5.53;3.70;;;;;;;2.84;36.06;97826.13;1704149;84;21176;-84
2022/03/09 11:01:44;;;;;;;4.28;3.20;;;;;;;3.02;36.66;97822.60;1704012;84;21481;-83
2022/03/09 11:04:19;;;;;;;5.92;4.12;;;;;;;3.58;35.67;97824.61;1677884;83;21003;-84
2022/03/09 11:06:49;;;;;;;5.33;3.55;;;;;;;3.96;36.59;97816.54;1714889;83;21037;-83
2022/03/09 11:09:19;;;;;;;5.67;3.47;;;;;;;4.69;35.26;97819.55;1720433;83;21059;-83
2022/03/09 11:11:48;;;;;;;7.08;3.05;;;;;;;5.17;35.01;97816.88;1706151;83;21071;-83
2022/03/09 11:14:18;;;;;;;5.17;3.00;;;;;;;5.55;33.62;97807.69;1723094;83;21000;-84
2022/03/09 11:16:48;;;;;;;9.20;6.33;;;;;;;5.31;33.80;97807.09;1721355;83;21123;-85
2022/03/09 11:19:16;;;;;;;3.62;2.65;;;;;;;5.10;34.06;97809.07;1721587;83;20992;-84
2022/03/09 11:21:44;;;;;;;4.08;2.67;;;;;;;4.97;33.59;97816.64;1721292;83;21076;-82
2022/03/09 11:24:15;;;;;;;4.33;2.90;;;;;;;4.77;34.00;97806.34;1721358;83;20992;-82
2022/03/09 11:26:52;;;;;;;5.42;3.00;;;;;;;4.68;34.52;97816.47;1721453;83;21509;-82
2022/03/09 11:29:34;;;;;;;5.33;2.92;;;;;;;4.84;33.72;97813.27;1721396;83;21019;-81
2022/03/09 11:32:03;;;;;;;4.90;2.83;;;;;;;6.08;34.58;97797.82;1721279;83;21039;-80
2022/03/09 11:34:41;;;;;;;6.22;2.83;;;;;;;7.38;31.14;97786.81;1721331;83;21052;-81
2022/03/09 11:37:21;;;;;;;4.35;3.02;;;;;;;7.09;32.52;97800.11;1706685;82;21083;-86
2022/03/09 11:40:12;;;;;;;5.42;2.80;;;;;;;6.77;28.80;97803.33;1719279;83;21015;-82